Time;durP1;ratioP1;P1;durP2;ratioP2;P2;SDS_P1;SDS_P2;PMS_P1;PMS_P2;Temp;Humidity;BMP_temperature;BMP_pressure;BME280_temperature;BME280_humidity;BME280_pressure;Samples;Min_cycle;Max_cycle;Signal;HPM_P1;HPM_P2
2022/04/07 00:00:05;;;;;;;8.23;3.65;;;;;;;;;;5116516;27;20050;-76
2022/04/07 00:02:31;;;;;;;8.35;4.03;;;;;;;;;;5116745;27;20122;-75
2022/04/07 00:04:57;;;;;;;6.65;3.75;;;;;;;;;;5116520;27;20465;-73
2022/04/07 00:07:22;;;;;;;6.07;2.90;;;;;;;;;;5116840;27;20063;-75
2022/04/07 00:09:48;;;;;;;4.38;3.17;;;;;;;;;;5116629;27;20440;-76
2022/04/07 00:12:14;;;;;;;6.13;3.13;;;;;;;;;;5116674;27;20406;-73
2022/04/07 00:14:40;;;;;;;4.57;2.97;;;;;;;;;;5116186;27;20383;-73
2022/04/07 00:17:06;;;;;;;4.82;2.70;;;;;;;;;;5116570;27;20042;-73
2022/04/07 00:19:32;;;;;;;5.93;3.10;;;;;;;;;;5115794;27;20129;-77
2022/04/07 00:21:59;;;;;;;6.00;3.08;;;;;;;;;;5115977;27;20054;-72
2022/04/07 00:24:25;;;;;;;4.30;2.65;;;;;;;;;;5116568;27;20127;-74
2022/04/07 00:26:51;;;;;;;7.07;2.60;;;;;;;;;;5115942;27;20175;-75
2022/04/07 00:29:20;;;;;;;8.00;2.88;;;;;;;;;;5116259;27;20495;-76
2022/04/07 00:31:53;;;;;;;6.22;2.40;;;;;;;;;;5116091;27;20050;-73
2022/04/07 00:34:19;;;;;;;4.95;2.20;;;;;;;;;;5115762;27;20039;-75
2022/04/07 00:36:45;;;;;;;7.07;2.33;;;;;;;;;;5116013;27;20042;-73
2022/04/07 00:39:11;;;;;;;5.70;2.25;;;;;;;;;;5115771;27;20083;-72
2022/04/07 00:41:39;;;;;;;4.60;2.22;;;;;;;;;;5115826;27;20290;-74
2022/04/07 00:44:08;;;;;;;5.72;2.55;;;;;;;;;;5115471;27;20062;-72
2022/04/07 00:46:34;;;;;;;7.50;2.78;;;;;;;;;;5115657;27;20454;-75
2022/04/07 00:49:00;;;;;;;7.13;2.35;;;;;;;;;;5115530;27;20475;-77
2022/04/07 00:51:26;;;;;;;5.72;2.90;;;;;;;;;;5115557;27;20031;-76
2022/04/07 00:53:52;;;;;;;5.68;3.45;;;;;;;;;;5115509;27;20042;-76
2022/04/07 00:56:18;;;;;;;6.38;3.22;;;;;;;;;;5116008;27;20074;-73
2022/04/07 00:58:47;;;;;;;3.90;2.80;;;;;;;;;;5115371;27;20043;-77
2022/04/07 01:01:13;;;;;;;5.68;2.92;;;;;;;;;;5115131;27;20053;-78
2022/04/07 01:03:39;;;;;;;5.45;2.63;;;;;;;;;;5115176;27;20043;-74
2022/04/07 01:06:05;;;;;;;2.60;1.65;;;;;;;;;;5115552;27;20115;-72
2022/04/07 01:08:31;;;;;;;3.50;1.90;;;;;;;;;;5115050;27;20045;-74
2022/04/07 01:10:57;;;;;;;1.60;1.08;;;;;;;;;;5115326;27;20035;-75
2022/04/07 01:13:23;;;;;;;2.63;0.90;;;;;;;;;;5115264;27;20035;-73
2022/04/07 01:15:49;;;;;;;4.32;1.10;;;;;;;;;;5114925;27;20505;-75
2022/04/07 01:18:15;;;;;;;4.78;1.50;;;;;;;;;;5115125;27;20134;-74
2022/04/07 01:20:41;;;;;;;3.13;1.00;;;;;;;;;;5114941;27;20035;-76
2022/04/07 01:23:07;;;;;;;2.20;1.10;;;;;;;;;;5115055;27;20065;-73
2022/04/07 01:25:34;;;;;;;2.03;1.20;;;;;;;;;;5114713;27;20445;-76
2022/04/07 01:28:00;;;;;;;2.50;1.70;;;;;;;;;;5114662;27;20465;-77
2022/04/07 01:30:26;;;;;;;2.50;1.88;;;;;;;;;;5113930;27;20031;-75
2022/04/07 01:32:57;;;;;;;2.13;1.77;;;;;;;;;;5114562;27;20096;-74
2022/04/07 01:35:23;;;;;;;9.40;2.03;;;;;;;;;;5114585;27;20419;-70
2022/04/07 01:37:49;;;;;;;2.17;1.55;;;;;;;;;;5114723;27;20035;-74
2022/04/07 01:40:17;;;;;;;1.77;1.30;;;;;;;;;;5114635;27;20043;-74
2022/04/07 01:42:46;;;;;;;2.90;1.58;;;;;;;;;;5114026;27;20420;-74
2022/04/07 01:45:12;;;;;;;4.95;1.48;;;;;;;;;;5114416;27;20111;-75
2022/04/07 01:47:40;;;;;;;2.83;1.90;;;;;;;;;;5114437;27;20038;-75
2022/04/07 01:50:07;;;;;;;3.30;2.28;;;;;;;;;;5114423;27;20474;-74
2022/04/07 01:52:37;;;;;;;7.25;2.78;;;;;;;;;;5114317;27;20043;-74
2022/04/07 01:55:03;;;;;;;5.45;2.45;;;;;;;;;;5114507;27;20444;-74
2022/04/07 01:57:31;;;;;;;8.25;3.03;;;;;;;;;;5114240;27;20050;-75
2022/04/07 01:59:58;;;;;;;5.00;2.92;;;;;;;;;;5114305;27;20550;-73
2022/04/07 02:02:24;;;;;;;4.50;3.60;;;;;;;;;;5114537;28;20676;-74
2022/04/07 02:04:57;;;;;;;6.20;3.47;;;;;;;;;;5114483;28;20118;-76
2022/04/07 02:07:27;;;;;;;9.13;4.03;;;;;;;;;;5114260;27;20121;-75
2022/04/07 02:09:53;;;;;;;7.13;3.67;;;;;;;;;;5114400;28;20088;-75
2022/04/07 02:12:20;;;;;;;9.50;3.60;;;;;;;;;;5114428;28;20043;-75
2022/04/07 02:14:47;;;;;;;9.52;3.40;;;;;;;;;;5114536;28;20039;-72
2022/04/07 02:17:13;;;;;;;7.93;3.67;;;;;;;;;;5114256;28;20403;-76
2022/04/07 02:19:39;;;;;;;7.45;3.03;;;;;;;;;;5114320;28;20043;-74
2022/04/07 02:22:05;;;;;;;6.30;2.50;;;;;;;;;;5114359;28;20042;-78
2022/04/07 02:24:31;;;;;;;8.45;2.90;;;;;;;;;;5114378;28;20043;-74
2022/04/07 02:26:57;;;;;;;8.63;3.78;;;;;;;;;;5114710;28;20035;-79
2022/04/07 02:29:23;;;;;;;7.40;3.42;;;;;;;;;;5114330;28;20070;-78
2022/04/07 02:31:49;;;;;;;4.80;2.55;;;;;;;;;;5114296;28;20398;-74
2022/04/07 02:34:15;;;;;;;6.32;2.60;;;;;;;;;;5114432;28;20035;-75
2022/04/07 02:36:41;;;;;;;6.65;2.80;;;;;;;;;;5114195;28;20050;-76
2022/04/07 02:39:07;;;;;;;7.05;2.60;;;;;;;;;;5114230;28;20035;-78
2022/04/07 02:41:33;;;;;;;9.70;2.85;;;;;;;;;;5115202;27;20042;-76
2022/04/07 02:44:02;;;;;;;2.83;1.95;;;;;;;;;;5117841;27;20414;-75
2022/04/07 02:46:28;;;;;;;3.70;2.53;;;;;;;;;;5118292;27;20487;-74
2022/04/07 02:48:54;;;;;;;8.48;2.88;;;;;;;;;;5117891;27;20039;-77
2022/04/07 02:51:20;;;;;;;9.68;2.42;;;;;;;;;;5118140;27;20046;-75
2022/04/07 02:53:46;;;;;;;8.20;2.95;;;;;;;;;;5117920;27;20039;-75
2022/04/07 02:56:12;;;;;;;9.35;3.10;;;;;;;;;;5118110;27;20119;-78
2022/04/07 02:58:38;;;;;;;9.68;2.88;;;;;;;;;;5117958;27;20081;-75
2022/04/07 03:01:04;;;;;;;6.82;2.50;;;;;;;;;;5117726;27;20486;-76
2022/04/07 03:03:30;;;;;;;8.73;2.53;;;;;;;;;;5117734;27;20042;-76
2022/04/07 03:05:56;;;;;;;5.57;2.65;;;;;;;;;;5118054;27;20035;-74
2022/04/07 03:08:22;;;;;;;4.35;2.38;;;;;;;;;;5117365;27;20035;-79
2022/04/07 03:10:48;;;;;;;5.30;2.40;;;;;;;;;;5118161;27;20463;-76
2022/04/07 03:13:14;;;;;;;6.25;2.33;;;;;;;;;;5117332;27;20047;-80
2022/04/07 03:15:40;;;;;;;5.03;1.90;;;;;;;;;;5117904;27;20129;-76
2022/04/07 03:18:06;;;;;;;4.55;2.38;;;;;;;;;;5117501;27;20586;-76
2022/04/07 03:20:32;;;;;;;12.65;3.22;;;;;;;;;;5117864;27;20092;-80
2022/04/07 03:22:58;;;;;;;13.65;2.13;;;;;;;;;;5117562;27;20043;-78
2022/04/07 03:25:24;;;;;;;7.25;2.50;;;;;;;;;;5117212;27;20045;-76
2022/04/07 03:27:50;;;;;;;6.80;2.90;;;;;;;;;;5117671;27;20103;-76
2022/04/07 03:30:16;;;;;;;12.25;3.85;;;;;;;;;;5117212;27;20501;-78
2022/04/07 03:32:42;;;;;;;6.60;3.17;;;;;;;;;;5118305;27;20398;-80
2022/04/07 03:35:08;;;;;;;8.68;3.33;;;;;;;;;;5118201;27;20479;-80
2022/04/07 03:37:33;;;;;;;9.20;2.75;;;;;;;;;;5118139;27;20215;-81
2022/04/07 03:39:59;;;;;;;5.03;2.15;;;;;;;;;;5118351;27;20087;-79
2022/04/07 03:42:25;;;;;;;10.43;3.53;;;;;;;;;;5117786;27;20054;-80
2022/04/07 03:44:51;;;;;;;5.25;2.25;;;;;;;;;;5117023;27;20051;-73
2022/04/07 03:47:17;;;;;;;5.93;2.40;;;;;;;;;;5116900;27;20042;-76
2022/04/07 03:49:43;;;;;;;6.85;2.10;;;;;;;;;;5116865;27;20534;-74
2022/04/07 03:52:09;;;;;;;8.18;2.45;;;;;;;;;;5116696;27;20043;-76
2022/04/07 03:54:35;;;;;;;4.05;1.50;;;;;;;;;;5116188;27;20039;-75
2022/04/07 03:57:02;;;;;;;4.28;1.63;;;;;;;;;;5116868;27;20234;-75
2022/04/07 03:59:28;;;;;;;2.88;1.15;;;;;;;;;;5116599;27;20039;-76
2022/04/07 04:01:54;;;;;;;5.25;1.25;;;;;;;;;;5115529;27;20050;-75
2022/04/07 04:04:22;;;;;;;3.92;1.90;;;;;;;;;;5113472;27;20541;-76
2022/04/07 04:06:48;;;;;;;6.15;2.22;;;;;;;;;;5113463;27;20051;-75
2022/04/07 04:09:14;;;;;;;8.25;1.67;;;;;;;;;;5106136;27;20070;-78
2022/04/07 04:11:40;;;;;;;11.82;2.30;;;;;;;;;;5104333;27;20067;-74
2022/04/07 04:14:06;;;;;;;3.58;1.42;;;;;;;;;;5101586;27;20237;-73
2022/04/07 04:16:32;;;;;;;7.82;2.33;;;;;;;;;;5101605;27;20043;-77
2022/04/07 04:18:58;;;;;;;8.25;1.85;;;;;;;;;;5101927;27;20045;-71
2022/04/07 04:21:24;;;;;;;2.55;1.33;;;;;;;;;;5085814;27;20050;-73
2022/04/07 04:23:50;;;;;;;9.15;2.20;;;;;;;;;;5100795;27;20438;-77
2022/04/07 04:26:15;;;;;;;8.70;2.50;;;;;;;;;;5103598;27;20398;-76
2022/04/07 04:28:41;;;;;;;4.07;2.03;;;;;;;;;;5085368;27;20096;-75
2022/04/07 04:31:07;;;;;;;6.57;2.05;;;;;;;;;;5100277;27;20048;-75
2022/04/07 04:33:33;;;;;;;7.03;2.10;;;;;;;;;;5102578;27;20130;-75
2022/04/07 04:35:59;;;;;;;8.82;2.67;;;;;;;;;;5084919;27;20044;-75
2022/04/07 04:38:26;;;;;;;9.80;3.08;;;;;;;;;;5101423;27;20508;-75
2022/04/07 04:40:52;;;;;;;9.00;2.75;;;;;;;;;;5102444;27;20038;-75
2022/04/07 04:43:17;;;;;;;8.35;2.67;;;;;;;;;;5073332;28;20064;-77
2022/04/07 04:45:43;;;;;;;12.18;3.38;;;;;;;;;;5077916;28;20043;-78
2022/04/07 04:48:09;;;;;;;7.25;2.92;;;;;;;;;;5065814;28;20032;-77
2022/04/07 04:50:35;;;;;;;8.18;3.40;;;;;;;;;;5080766;28;20036;-75
2022/04/07 04:53:01;;;;;;;10.90;2.97;;;;;;;;;;5081053;28;20135;-77
2022/04/07 04:55:27;;;;;;;9.27;3.08;;;;;;;;;;5082415;28;20043;-73
2022/04/07 04:57:53;;;;;;;10.73;3.63;;;;;;;;;;5060784;28;20037;-74
2022/04/07 05:00:19;;;;;;;9.20;3.05;;;;;;;;;;5081339;28;20040;-76
2022/04/07 05:02:45;;;;;;;9.93;3.35;;;;;;;;;;5082424;28;20399;-75
2022/04/07 05:05:12;;;;;;;13.50;3.58;;;;;;;;;;5065150;28;20025;-75
2022/04/07 05:07:38;;;;;;;18.33;3.63;;;;;;;;;;5081171;28;20037;-75
2022/04/07 05:10:05;;;;;;;12.63;3.60;;;;;;;;;;5063763;28;20044;-77
2022/04/07 05:12:31;;;;;;;18.60;3.88;;;;;;;;;;5065242;28;20068;-77
2022/04/07 05:14:57;;;;;;;10.43;4.03;;;;;;;;;;5082202;28;20518;-76
2022/04/07 05:17:23;;;;;;;5.97;2.42;;;;;;;;;;5065547;28;20687;-76
2022/04/07 05:19:49;;;;;;;8.75;2.80;;;;;;;;;;5081801;28;20464;-76
2022/04/07 05:22:15;;;;;;;5.15;2.08;;;;;;;;;;5080291;28;20047;-77
2022/04/07 05:24:41;;;;;;;7.95;1.80;;;;;;;;;;5064666;28;20028;-77
2022/04/07 05:27:07;;;;;;;9.75;2.25;;;;;;;;;;5065068;28;20090;-79
2022/04/07 05:29:33;;;;;;;7.40;1.75;;;;;;;;;;5077276;28;20469;-78
2022/04/07 05:31:59;;;;;;;4.85;1.75;;;;;;;;;;5064036;28;20036;-77
2022/04/07 05:34:25;;;;;;;4.90;1.15;;;;;;;;;;5081575;28;20036;-77
2022/04/07 05:36:51;;;;;;;5.85;1.67;;;;;;;;;;5065434;28;20032;-78
2022/04/07 05:39:17;;;;;;;4.90;1.23;;;;;;;;;;5063700;28;20110;-78
2022/04/07 05:41:43;;;;;;;5.88;1.17;;;;;;;;;;5063189;28;20033;-80
2022/04/07 05:44:09;;;;;;;5.38;1.30;;;;;;;;;;5081860;27;20099;-79
2022/04/07 05:46:35;;;;;;;3.35;1.20;;;;;;;;;;5102053;28;20479;-79
2022/04/07 05:49:01;;;;;;;3.83;1.48;;;;;;;;;;5096257;28;20040;-81
2022/04/07 05:51:26;;;;;;;5.15;1.30;;;;;;;;;;5080361;28;20510;-78
2022/04/07 05:53:52;;;;;;;3.20;1.33;;;;;;;;;;5077905;28;20479;-78
2022/04/07 05:56:18;;;;;;;2.20;0.65;;;;;;;;;;5094554;28;20066;-75
2022/04/07 05:58:44;;;;;;;2.78;0.50;;;;;;;;;;5094227;28;20051;-77
2022/04/07 06:01:10;;;;;;;1.30;0.77;;;;;;;;;;5093998;28;20123;-75
2022/04/07 06:03:36;;;;;;;2.08;0.30;;;;;;;;;;5077611;28;20063;-75
2022/04/07 06:06:02;;;;;;;3.45;0.38;;;;;;;;;;5077057;28;20100;-75
2022/04/07 06:08:28;;;;;;;1.65;0.43;;;;;;;;;;5076869;28;20449;-76
2022/04/07 06:10:54;;;;;;;1.35;0.30;;;;;;;;;;5077103;28;20042;-76
2022/04/07 06:13:20;;;;;;;2.17;0.60;;;;;;;;;;5094120;28;20040;-77
2022/04/07 06:15:47;;;;;;;0.90;0.45;;;;;;;;;;5093490;28;20035;-78
2022/04/07 06:18:13;;;;;;;1.73;0.52;;;;;;;;;;5094270;28;20171;-78
2022/04/07 06:20:40;;;;;;;1.50;0.40;;;;;;;;;;5077406;28;20506;-76
2022/04/07 06:23:06;;;;;;;0.50;0.40;;;;;;;;;;5093934;28;20040;-75
2022/04/07 06:25:32;;;;;;;4.25;0.95;;;;;;;;;;5094055;28;20043;-76
2022/04/07 06:27:59;;;;;;;2.22;0.55;;;;;;;;;;5093647;28;20032;-77
2022/04/07 06:30:25;;;;;;;3.80;0.93;;;;;;;;;;5093445;28;20061;-76
2022/04/07 06:32:52;;;;;;;2.78;0.60;;;;;;;;;;5076994;28;20507;-75
2022/04/07 06:35:18;;;;;;;3.10;0.80;;;;;;;;;;5093839;28;20499;-76
2022/04/07 06:37:51;;;;;;;3.55;0.68;;;;;;;;;;5076691;28;20130;-76
2022/04/07 06:40:18;;;;;;;2.78;0.60;;;;;;;;;;5076519;28;20113;-75
2022/04/07 06:42:44;;;;;;;3.55;0.63;;;;;;;;;;5092970;28;20043;-74
2022/04/07 06:45:10;;;;;;;2.83;0.60;;;;;;;;;;5076784;28;20092;-76
2022/04/07 06:47:40;;;;;;;2.38;0.50;;;;;;;;;;5093393;28;20035;-74
2022/04/07 06:50:08;;;;;;;2.93;0.90;;;;;;;;;;5076572;28;20039;-75
2022/04/07 06:52:34;;;;;;;0.90;0.52;;;;;;;;;;5093620;28;20047;-74
2022/04/07 06:54:59;;;;;;;0.40;0.40;;;;;;;;;;5093401;28;20372;-77
2022/04/07 06:57:25;;;;;;;6.85;0.65;;;;;;;;;;5093540;28;20130;-77
2022/04/07 06:59:51;;;;;;;1.38;0.45;;;;;;;;;;5076705;28;20040;-75
2022/04/07 07:02:17;;;;;;;0.93;0.40;;;;;;;;;;5076743;28;20039;-78
2022/04/07 07:04:43;;;;;;;1.52;0.40;;;;;;;;;;5076386;28;20258;-76
2022/04/07 07:07:11;;;;;;;3.13;0.80;;;;;;;;;;5076817;28;20492;-73
2022/04/07 07:09:37;;;;;;;0.20;0.20;;;;;;;;;;5093126;28;20118;-77
2022/04/07 07:12:03;;;;;;;1.70;0.55;;;;;;;;;;5076325;28;20123;-74
2022/04/07 07:14:29;;;;;;;3.65;1.45;;;;;;;;;;5093139;28;20040;-73
2022/04/07 07:16:55;;;;;;;1.80;0.50;;;;;;;;;;5093049;28;20570;-74
2022/04/07 07:19:26;;;;;;;4.07;0.50;;;;;;;;;;5076338;28;20036;-75
2022/04/07 07:21:52;;;;;;;;;;;;;;;;;;5093886;28;20050;-75
2022/04/07 07:24:18;;;;;;;4.38;0.43;;;;;;;;;;5075813;28;19915;-71
2022/04/07 07:26:44;;;;;;;1.45;0.40;;;;;;;;;;5092972;28;20051;-75
2022/04/07 07:29:10;;;;;;;4.50;0.47;;;;;;;;;;5083623;27;20039;-78
2022/04/07 07:31:36;;;;;;;0.50;0.40;;;;;;;;;;5096915;27;20043;-76
2022/04/07 07:34:03;;;;;;;1.17;0.30;;;;;;;;;;5117495;27;20080;-72
2022/04/07 07:36:29;;;;;;;4.10;0.40;;;;;;;;;;5117171;27;20050;-74
2022/04/07 07:38:55;;;;;;;1.20;0.30;;;;;;;;;;5116919;27;20487;-75
2022/04/07 07:41:21;;;;;;;2.78;0.40;;;;;;;;;;5116902;27;20043;-76
2022/04/07 07:43:47;;;;;;;0.50;0.50;;;;;;;;;;5116410;27;20432;-72
2022/04/07 07:46:13;;;;;;;5.35;0.50;;;;;;;;;;5116790;27;20180;-74
2022/04/07 07:48:39;;;;;;;1.30;0.30;;;;;;;;;;5116867;27;20395;-74
2022/04/07 07:51:05;;;;;;;0.77;0.50;;;;;;;;;;5116411;27;20066;-73
2022/04/07 07:53:31;;;;;;;1.38;0.22;;;;;;;;;;5116710;27;20035;-73
2022/04/07 07:55:57;;;;;;;0.38;0.38;;;;;;;;;;5116484;27;20121;-73
2022/04/07 07:58:24;;;;;;;3.45;0.68;;;;;;;;;;5116788;27;20039;-74
2022/04/07 08:00:50;;;;;;;0.52;0.30;;;;;;;;;;5116457;27;20601;-74
2022/04/07 08:03:16;;;;;;;0.93;0.45;;;;;;;;;;5116271;27;20043;-73
2022/04/07 08:05:42;;;;;;;2.35;0.55;;;;;;;;;;5116372;27;20490;-75
2022/04/07 08:08:08;;;;;;;1.77;0.50;;;;;;;;;;5116239;27;20035;-74
2022/04/07 08:10:34;;;;;;;3.53;0.60;;;;;;;;;;5116142;27;20063;-74
2022/04/07 08:13:00;;;;;;;0.90;0.40;;;;;;;;;;5116127;27;20039;-74
2022/04/07 08:15:27;;;;;;;3.22;0.57;;;;;;;;;;5115292;27;20043;-72
2022/04/07 08:17:53;;;;;;;1.42;0.60;;;;;;;;;;5112547;27;20039;-75
2022/04/07 08:20:19;;;;;;;1.13;0.35;;;;;;;;;;5112570;27;20042;-74
2022/04/07 08:22:45;;;;;;;1.60;0.57;;;;;;;;;;5112137;27;20125;-73
2022/04/07 08:25:11;;;;;;;1.95;0.57;;;;;;;;;;5112566;27;20169;-74
2022/04/07 08:27:37;;;;;;;1.15;0.63;;;;;;;;;;5112847;27;20043;-75
2022/04/07 08:30:04;;;;;;;0.70;0.50;;;;;;;;;;5112469;27;20083;-75
2022/04/07 08:32:31;;;;;;;2.85;0.70;;;;;;;;;;5111950;27;20079;-74
2022/04/07 08:34:58;;;;;;;1.00;0.50;;;;;;;;;;5112283;27;20471;-73
2022/04/07 08:37:24;;;;;;;3.47;0.93;;;;;;;;;;5112485;27;20057;-76
2022/04/07 08:39:51;;;;;;;1.00;0.68;;;;;;;;;;5111813;27;20043;-75
2022/04/07 08:42:23;;;;;;;2.30;0.55;;;;;;;;;;5112331;27;20179;-70
2022/04/07 08:44:49;;;;;;;1.23;0.95;;;;;;;;;;5111529;27;20086;-73
2022/04/07 08:47:18;;;;;;;1.60;0.50;;;;;;;;;;5111941;27;20043;-74
2022/04/07 08:49:44;;;;;;;3.67;0.55;;;;;;;;;;5111945;27;20043;-73
2022/04/07 08:52:10;;;;;;;2.10;0.70;;;;;;;;;;5112295;27;20070;-76
2022/04/07 08:54:37;;;;;;;2.65;0.95;;;;;;;;;;5112006;27;20077;-73
2022/04/07 08:57:03;;;;;;;0.77;0.63;;;;;;;;;;5111803;27;20081;-77
2022/04/07 08:59:30;;;;;;;0.90;0.40;;;;;;;;;;5112204;27;20046;-75
2022/04/07 09:02:01;;;;;;;1.17;0.68;;;;;;;;;;5112104;27;20130;-73
2022/04/07 09:04:29;;;;;;;2.08;0.50;;;;;;;;;;5112181;27;20050;-72
2022/04/07 09:06:56;;;;;;;1.15;0.60;;;;;;;;;;5111620;27;20082;-75
2022/04/07 09:09:22;;;;;;;1.63;0.73;;;;;;;;;;5111903;27;20035;-74
2022/04/07 09:11:54;;;;;;;1.42;0.68;;;;;;;;;;5111514;27;20042;-72
2022/04/07 09:14:20;;;;;;;2.00;0.57;;;;;;;;;;5111774;27;20047;-71
2022/04/07 09:16:46;;;;;;;1.73;0.70;;;;;;;;;;5112031;27;20043;-78
2022/04/07 09:19:13;;;;;;;7.32;1.42;;;;;;;;;;5111355;27;20050;-73
2022/04/07 09:21:39;;;;;;;7.18;0.93;;;;;;;;;;5111497;27;20054;-74
2022/04/07 09:24:07;;;;;;;2.30;0.60;;;;;;;;;;5111700;27;20046;-75
2022/04/07 09:26:36;;;;;;;4.00;1.02;;;;;;;;;;5111607;27;20513;-72
2022/04/07 09:29:10;;;;;;;3.25;0.70;;;;;;;;;;5111435;27;20035;-75
2022/04/07 09:31:40;;;;;;;2.13;0.75;;;;;;;;;;5111389;27;20187;-75
2022/04/07 09:34:06;;;;;;;4.53;1.40;;;;;;;;;;5111012;27;20109;-75
2022/04/07 09:36:32;;;;;;;4.28;1.08;;;;;;;;;;5111402;27;20074;-73
2022/04/07 09:39:00;;;;;;;2.90;1.00;;;;;;;;;;5111169;27;20085;-75
2022/04/07 09:41:28;;;;;;;1.92;0.70;;;;;;;;;;5111495;27;20054;-73
2022/04/07 09:43:58;;;;;;;6.68;0.85;;;;;;;;;;5110858;27;20062;-76
2022/04/07 09:46:24;;;;;;;2.40;0.82;;;;;;;;;;5110987;27;20126;-76
2022/04/07 09:49:10;;;;;;;2.67;0.70;;;;;;;;;;5111553;27;20043;-77
2022/04/07 09:51:50;;;;;;;4.15;0.85;;;;;;;;;;5093291;27;20122;-74
2022/04/07 09:54:16;;;;;;;2.58;0.77;;;;;;;;;;5111625;27;20050;-73
2022/04/07 09:56:43;;;;;;;2.65;0.90;;;;;;;;;;5110644;27;20043;-75
2022/04/07 09:59:09;;;;;;;4.32;1.10;;;;;;;;;;5110731;27;20070;-73
2022/04/07 10:01:38;;;;;;;3.33;0.65;;;;;;;;;;5110809;27;20130;-74
2022/04/07 10:04:04;;;;;;;3.35;0.70;;;;;;;;;;5110847;28;20502;-76
2022/04/07 10:06:31;;;;;;;1.83;0.80;;;;;;;;;;5114521;28;20039;-76
2022/04/07 10:08:59;;;;;;;5.85;0.98;;;;;;;;;;5108887;28;20039;-73
2022/04/07 10:11:25;;;;;;;4.28;1.10;;;;;;;;;;5102149;27;20079;-77
2022/04/07 10:13:51;;;;;;;3.63;0.60;;;;;;;;;;5102877;28;20080;-75
2022/04/07 10:16:17;;;;;;;5.57;1.20;;;;;;;;;;5088191;28;20047;-77
2022/04/07 10:19:00;;;;;;;4.25;1.20;;;;;;;;;;5088037;28;20099;-74
2022/04/07 10:21:45;;;;;;;5.35;1.10;;;;;;;;;;5082529;28;20082;-75
2022/04/07 10:24:30;;;;;;;6.60;0.98;;;;;;;;;;5082920;28;20043;-75
2022/04/07 10:26:59;;;;;;;5.70;0.98;;;;;;;;;;5095443;28;20031;-71
2022/04/07 10:29:25;;;;;;;5.10;1.33;;;;;;;;;;5099574;28;20050;-76
2022/04/07 10:32:09;;;;;;;8.23;1.25;;;;;;;;;;5102351;28;20035;-76
2022/04/07 10:34:35;;;;;;;5.18;1.05;;;;;;;;;;5083849;28;20391;-75
2022/04/07 10:37:06;;;;;;;6.53;1.42;;;;;;;;;;5098597;28;20055;-76
2022/04/07 10:39:32;;;;;;;4.72;1.02;;;;;;;;;;5100439;28;20048;-76
2022/04/07 10:41:58;;;;;;;4.95;1.40;;;;;;;;;;5098895;28;20046;-73
2022/04/07 10:44:25;;;;;;;9.20;1.30;;;;;;;;;;5101489;28;20406;-78
2022/04/07 10:47:02;;;;;;;4.65;1.08;;;;;;;;;;5104181;28;20040;-75
2022/04/07 10:49:29;;;;;;;7.60;1.10;;;;;;;;;;5103076;28;20122;-76
2022/04/07 10:51:57;;;;;;;10.63;1.27;;;;;;;;;;5087438;28;20028;-76
2022/04/07 10:54:24;;;;;;;6.78;1.20;;;;;;;;;;5087283;28;20114;-71
2022/04/07 10:56:51;;;;;;;3.67;1.20;;;;;;;;;;5086710;28;20031;-71
2022/04/07 10:59:46;;;;;;;8.32;1.48;;;;;;;;;;5101894;28;20043;-74
2022/04/07 11:02:15;;;;;;;8.68;1.45;;;;;;;;;;5080422;27;20086;-73
2022/04/07 11:04:42;;;;;;;5.55;1.25;;;;;;;;;;5089511;27;20036;-72
2022/04/07 11:07:09;;;;;;;4.35;0.90;;;;;;;;;;5107026;27;20134;-76
2022/04/07 11:09:44;;;;;;;4.63;1.25;;;;;;;;;;5090821;27;20504;-72
2022/04/07 11:12:10;;;;;;;6.07;1.88;;;;;;;;;;5090323;27;20067;-73
2022/04/07 11:14:37;;;;;;;6.15;1.23;;;;;;;;;;5105739;27;20138;-74
2022/04/07 11:17:06;;;;;;;6.25;1.13;;;;;;;;;;5107191;27;20126;-73
2022/04/07 11:19:32;;;;;;;9.77;2.05;;;;;;;;;;5107337;27;20387;-75
2022/04/07 11:22:07;;;;;;;2.70;0.77;;;;;;;;;;5105825;27;20028;-70
2022/04/07 11:24:39;;;;;;;3.33;0.90;;;;;;;;;;5105747;27;20061;-72
2022/04/07 11:27:24;;;;;;;7.20;1.23;;;;;;;;;;5083586;27;20046;-74
2022/04/07 11:30:06;;;;;;;6.15;1.45;;;;;;;;;;5105770;27;20031;-73
2022/04/07 11:32:32;;;;;;;4.90;1.30;;;;;;;;;;5106274;27;20031;-73
2022/04/07 11:35:12;;;;;;;6.00;1.23;;;;;;;;;;5105252;27;20031;-70
2022/04/07 11:37:41;;;;;;;6.50;1.13;;;;;;;;;;5105181;27;20165;-72
2022/04/07 11:40:08;;;;;;;9.20;1.55;;;;;;;;;;5106144;27;20395;-73
2022/04/07 11:42:34;;;;;;;5.43;1.20;;;;;;;;;;5106928;27;20047;-71
2022/04/07 11:45:01;;;;;;;2.55;1.05;;;;;;;;;;5088642;27;20047;-74
2022/04/07 11:47:33;;;;;;;7.95;1.52;;;;;;;;;;5106397;27;20028;-73
2022/04/07 11:49:59;;;;;;;15.13;2.42;;;;;;;;;;5088152;27;20452;-70
2022/04/07 11:52:27;;;;;;;6.50;1.30;;;;;;;;;;5106598;27;20193;-71
2022/04/07 11:54:54;;;;;;;7.53;1.52;;;;;;;;;;5107305;27;20042;-72
2022/04/07 11:57:21;;;;;;;7.47;1.58;;;;;;;;;;5104775;27;20514;-74
2022/04/07 11:59:47;;;;;;;6.40;1.33;;;;;;;;;;5106301;27;20032;-73
2022/04/07 12:02:19;;;;;;;7.78;1.40;;;;;;;;;;5104945;27;20403;-76
2022/04/07 12:04:45;;;;;;;10.13;1.60;;;;;;;;;;5103983;27;20483;-78
2022/04/07 12:07:11;;;;;;;6.45;1.20;;;;;;;;;;5105170;27;20096;-71
2022/04/07 12:09:37;;;;;;;11.40;2.47;;;;;;;;;;5089938;27;20114;-73
2022/04/07 12:12:03;;;;;;;9.60;1.42;;;;;;;;;;5088216;27;20393;-73
2022/04/07 12:14:29;;;;;;;6.85;1.33;;;;;;;;;;5104871;27;20046;-74
2022/04/07 12:16:55;;;;;;;7.75;2.00;;;;;;;;;;5089866;27;20046;-71
2022/04/07 12:19:21;;;;;;;5.75;1.10;;;;;;;;;;5087993;27;20070;-75
2022/04/07 12:21:50;;;;;;;5.82;1.23;;;;;;;;;;5105776;27;20035;-72
2022/04/07 12:24:16;;;;;;;6.25;1.40;;;;;;;;;;5087080;27;20032;-70
2022/04/07 12:26:47;;;;;;;3.95;0.95;;;;;;;;;;5106436;27;20131;-75
2022/04/07 12:29:17;;;;;;;6.97;1.90;;;;;;;;;;5089511;27;20046;-74
2022/04/07 12:31:43;;;;;;;3.40;1.70;;;;;;;;;;5087929;27;20543;-79
2022/04/07 12:34:12;;;;;;;7.18;1.67;;;;;;;;;;5107312;27;20495;-73
2022/04/07 12:36:38;;;;;;;5.50;1.35;;;;;;;;;;5090090;27;20035;-75
2022/04/07 12:39:05;;;;;;;10.93;1.58;;;;;;;;;;5105280;27;20047;-72
2022/04/07 12:41:51;;;;;;;2.33;0.63;;;;;;;;;;5104656;27;20035;-76
2022/04/07 12:44:36;;;;;;;4.00;1.15;;;;;;;;;;5088649;27;20517;-73
2022/04/07 12:47:09;;;;;;;4.20;1.70;;;;;;;;;;5085443;27;20040;-71
2022/04/07 12:49:36;;;;;;;5.15;1.27;;;;;;;;;;5104405;27;20819;-71
2022/04/07 12:52:06;;;;;;;2.55;0.55;;;;;;;;;;5102238;27;20035;-76
2022/04/07 12:54:32;;;;;;;2.38;1.00;;;;;;;;;;5106990;27;20079;-71
2022/04/07 12:57:12;;;;;;;4.57;0.65;;;;;;;;;;5103708;27;20074;-73
2022/04/07 12:59:54;;;;;;;1.75;0.65;;;;;;;;;;5103757;27;20032;-70
2022/04/07 13:02:20;;;;;;;2.00;0.82;;;;;;;;;;5084072;27;20524;-70
2022/04/07 13:04:47;;;;;;;4.57;0.73;;;;;;;;;;5105380;27;20063;-73
2022/04/07 13:07:13;;;;;;;3.55;0.70;;;;;;;;;;5105517;27;20086;-72
2022/04/07 13:09:39;;;;;;;3.78;0.75;;;;;;;;;;5103741;27;20588;-75
2022/04/07 13:12:05;;;;;;;2.15;0.73;;;;;;;;;;5105512;27;20042;-75
2022/04/07 13:14:32;;;;;;;2.70;1.00;;;;;;;;;;5087909;27;20039;-77
2022/04/07 13:16:58;;;;;;;1.38;0.52;;;;;;;;;;5103492;27;20042;-76
2022/04/07 13:19:24;;;;;;;1.58;0.68;;;;;;;;;;5105277;27;20079;-70
2022/04/07 13:21:50;;;;;;;1.25;0.60;;;;;;;;;;5088768;28;20043;-76
2022/04/07 13:24:16;;;;;;;4.32;0.88;;;;;;;;;;5107081;28;20508;-74
2022/04/07 13:26:44;;;;;;;3.22;0.60;;;;;;;;;;5082648;28;20039;-72
2022/04/07 13:29:10;;;;;;;4.40;1.00;;;;;;;;;;5104658;27;20035;-73
2022/04/07 13:31:36;;;;;;;0.55;0.40;;;;;;;;;;5105125;27;20042;-75
2022/04/07 13:34:04;;;;;;;1.88;0.95;;;;;;;;;;5103289;27;20043;-71
2022/04/07 13:36:30;;;;;;;3.55;0.70;;;;;;;;;;5104468;27;20031;-70
2022/04/07 13:38:56;;;;;;;2.53;0.70;;;;;;;;;;5105122;27;20045;-73
2022/04/07 13:41:23;;;;;;;4.22;1.70;;;;;;;;;;5103331;27;20047;-72
2022/04/07 13:43:49;;;;;;;3.65;0.70;;;;;;;;;;5103741;27;20051;-71
2022/04/07 13:46:15;;;;;;;3.80;0.73;;;;;;;;;;5104836;27;20043;-69
2022/04/07 13:48:41;;;;;;;4.80;1.10;;;;;;;;;;5102699;28;20042;-71
2022/04/07 13:51:07;;;;;;;4.75;1.00;;;;;;;;;;5104358;28;20035;-73
2022/04/07 13:53:33;;;;;;;5.30;1.00;;;;;;;;;;5104648;28;20035;-72
2022/04/07 13:55:59;;;;;;;2.35;0.98;;;;;;;;;;5102909;28;20040;-75
2022/04/07 13:58:25;;;;;;;3.92;1.38;;;;;;;;;;5102742;27;20045;-70
2022/04/07 14:00:51;;;;;;;2.30;0.57;;;;;;;;;;5103886;28;20035;-72
2022/04/07 14:03:17;;;;;;;2.05;0.70;;;;;;;;;;5104994;27;20043;-75
2022/04/07 14:05:43;;;;;;;2.20;0.80;;;;;;;;;;5102316;28;20027;-76
2022/04/07 14:08:09;;;;;;;0.63;0.20;;;;;;;;;;5087102;27;20085;-70
2022/04/07 14:10:35;;;;;;;3.85;0.80;;;;;;;;;;5103600;28;20035;-74
2022/04/07 14:13:02;;;;;;;1.67;1.13;;;;;;;;;;5104933;27;20050;-74
2022/04/07 14:15:28;;;;;;;4.15;0.80;;;;;;;;;;5086543;28;20452;-71
2022/04/07 14:17:55;;;;;;;1.15;0.70;;;;;;;;;;5103283;28;20095;-70
2022/04/07 14:20:22;;;;;;;1.50;0.68;;;;;;;;;;5087815;28;20092;-72
2022/04/07 14:22:49;;;;;;;1.67;0.55;;;;;;;;;;5103680;28;20043;-72
2022/04/07 14:25:15;;;;;;;1.80;0.90;;;;;;;;;;5103272;28;20036;-77
2022/04/07 14:27:42;;;;;;;1.20;0.80;;;;;;;;;;5104502;28;20038;-70
2022/04/07 14:30:08;;;;;;;1.35;0.70;;;;;;;;;;5103451;28;20039;-74
2022/04/07 14:32:34;;;;;;;1.52;0.60;;;;;;;;;;5103249;28;20035;-73
2022/04/07 14:35:00;;;;;;;1.80;1.23;;;;;;;;;;5104346;28;20111;-73
2022/04/07 14:37:27;;;;;;;1.00;0.70;;;;;;;;;;5104311;27;20036;-74
2022/04/07 14:39:52;;;;;;;1.23;0.82;;;;;;;;;;5107043;27;20045;-70
2022/04/07 14:42:18;;;;;;;2.63;0.63;;;;;;;;;;5108538;27;20106;-68